sensor_id;sensor_type;location;lat;lon;timestamp;temperature;humidity
24338;DHT22;12457;50.832;4.346;2023-04-24T00:01:25;9.70;99.90
24338;DHT22;12457;50.832;4.346;2023-04-24T00:03:50;9.70;99.90
24338;DHT22;12457;50.832;4.346;2023-04-24T00:06:16;9.60;99.90
24338;DHT22;12457;50.832;4.346;2023-04-24T00:08:42;9.60;99.90
24338;DHT22;12457;50.832;4.346;2023-04-24T00:11:08;9.60;99.90
24338;DHT22;12457;50.832;4.346;2023-04-24T00:13:35;9.60;99.90
24338;DHT22;12457;50.832;4.346;2023-04-24T00:16:00;9.50;99.90
24338;DHT22;12457;50.832;4.346;2023-04-24T00:18:26;9.40;99.90
24338;DHT22;12457;50.832;4.346;2023-04-24T00:20:53;9.40;99.90
24338;DHT22;12457;50.832;4.346;2023-04-24T00:23:19;9.40;99.90
24338;DHT22;12457;50.832;4.346;2023-04-24T00:25:45;9.40;99.90
24338;DHT22;12457;50.832;4.346;2023-04-24T00:28:10;9.40;99.90
24338;DHT22;12457;50.832;4.346;2023-04-24T00:30:36;9.30;99.90
24338;DHT22;12457;50.832;4.346;2023-04-24T00:33:02;9.30;99.90
24338;DHT22;12457;50.832;4.346;2023-04-24T00:35:28;9.30;99.90
24338;DHT22;12457;50.832;4.346;2023-04-24T00:37:54;9.30;99.90
24338;DHT22;12457;50.832;4.346;2023-04-24T00:40:20;9.30;99.90
24338;DHT22;12457;50.832;4.346;2023-04-24T00:42:46;9.30;99.90
24338;DHT22;12457;50.832;4.346;2023-04-24T00:45:12;9.20;99.90
24338;DHT22;12457;50.832;4.346;2023-04-24T00:47:38;9.20;99.90
24338;DHT22;12457;50.832;4.346;2023-04-24T00:50:05;9.20;99.90
24338;DHT22;12457;50.832;4.346;2023-04-24T00:52:31;9.30;99.90
24338;DHT22;12457;50.832;4.346;2023-04-24T00:54:58;9.20;99.90
24338;DHT22;12457;50.832;4.346;2023-04-24T00:57:25;9.20;99.90
24338;DHT22;12457;50.832;4.346;2023-04-24T00:59:52;9.20;99.90
24338;DHT22;12457;50.832;4.346;2023-04-24T01:02:19;9.20;99.90
24338;DHT22;12457;50.832;4.346;2023-04-24T01:04:46;9.30;99.90
24338;DHT22;12457;50.832;4.346;2023-04-24T01:07:11;9.20;99.90
24338;DHT22;12457;50.832;4.346;2023-04-24T01:09:40;9.20;99.90
24338;DHT22;12457;50.832;4.346;2023-04-24T01:12:10;9.20;99.90
24338;DHT22;12457;50.832;4.346;2023-04-24T01:14:36;9.20;99.90
24338;DHT22;12457;50.832;4.346;2023-04-24T01:17:02;9.20;99.90
24338;DHT22;12457;50.832;4.346;2023-04-24T01:19:28;9.20;99.90
24338;DHT22;12457;50.832;4.346;2023-04-24T01:21:58;9.20;99.90
24338;DHT22;12457;50.832;4.346;2023-04-24T01:24:25;9.10;99.90
24338;DHT22;12457;50.832;4.346;2023-04-24T01:26:51;9.10;99.90
24338;DHT22;12457;50.832;4.346;2023-04-24T01:29:17;9.10;99.90
24338;DHT22;12457;50.832;4.346;2023-04-24T01:31:43;9.10;99.90
24338;DHT22;12457;50.832;4.346;2023-04-24T01:34:08;9.20;99.90
24338;DHT22;12457;50.832;4.346;2023-04-24T01:36:35;9.10;99.90
24338;DHT22;12457;50.832;4.346;2023-04-24T01:39:00;9.10;99.90
24338;DHT22;12457;50.832;4.346;2023-04-24T01:41:26;9.10;99.90
24338;DHT22;12457;50.832;4.346;2023-04-24T01:43:53;9.10;99.90
24338;DHT22;12457;50.832;4.346;2023-04-24T01:46:19;9.20;99.90
24338;DHT22;12457;50.832;4.346;2023-04-24T01:48:45;9.10;99.90
24338;DHT22;12457;50.832;4.346;2023-04-24T01:51:11;9.20;99.90
24338;DHT22;12457;50.832;4.346;2023-04-24T01:53:37;9.20;99.90
24338;DHT22;12457;50.832;4.346;2023-04-24T01:56:03;9.20;99.90
24338;DHT22;12457;50.832;4.346;2023-04-24T01:58:29;9.20;99.90
24338;DHT22;12457;50.832;4.346;2023-04-24T02:00:56;9.20;99.90
24338;DHT22;12457;50.832;4.346;2023-04-24T02:03:25;9.20;99.90
24338;DHT22;12457;50.832;4.346;2023-04-24T02:05:51;9.10;99.90
24338;DHT22;12457;50.832;4.346;2023-04-24T02:08:17;9.20;99.90
24338;DHT22;12457;50.832;4.346;2023-04-24T02:10:43;9.10;99.90
24338;DHT22;12457;50.832;4.346;2023-04-24T02:13:28;9.10;99.90
24338;DHT22;12457;50.832;4.346;2023-04-24T02:15:54;9.10;99.90
24338;DHT22;12457;50.832;4.346;2023-04-24T02:18:19;9.10;99.90
24338;DHT22;12457;50.832;4.346;2023-04-24T02:20:46;9.10;99.90
24338;DHT22;12457;50.832;4.346;2023-04-24T02:23:11;9.20;99.90
24338;DHT22;12457;50.832;4.346;2023-04-24T02:25:38;9.20;99.90
24338;DHT22;12457;50.832;4.346;2023-04-24T02:28:04;9.30;99.90
24338;DHT22;12457;50.832;4.346;2023-04-24T02:30:30;9.30;99.90
24338;DHT22;12457;50.832;4.346;2023-04-24T02:32:55;9.30;99.90
24338;DHT22;12457;50.832;4.346;2023-04-24T02:35:22;9.20;99.90
24338;DHT22;12457;50.832;4.346;2023-04-24T02:37:47;9.20;99.90
24338;DHT22;12457;50.832;4.346;2023-04-24T02:40:13;9.20;99.90
24338;DHT22;12457;50.832;4.346;2023-04-24T02:42:39;9.20;99.90
24338;DHT22;12457;50.832;4.346;2023-04-24T02:45:05;9.10;99.90
24338;DHT22;12457;50.832;4.346;2023-04-24T02:47:31;9.10;99.90
24338;DHT22;12457;50.832;4.346;2023-04-24T02:49:57;9.00;99.90
24338;DHT22;12457;50.832;4.346;2023-04-24T02:52:22;8.90;99.90
24338;DHT22;12457;50.832;4.346;2023-04-24T02:54:48;8.90;99.90
24338;DHT22;12457;50.832;4.346;2023-04-24T02:57:14;9.00;99.90
24338;DHT22;12457;50.832;4.346;2023-04-24T02:59:40;8.90;99.90
24338;DHT22;12457;50.832;4.346;2023-04-24T03:02:06;9.00;99.90
24338;DHT22;12457;50.832;4.346;2023-04-24T03:04:31;9.00;99.90
24338;DHT22;12457;50.832;4.346;2023-04-24T03:06:57;9.00;99.90
24338;DHT22;12457;50.832;4.346;2023-04-24T03:09:23;8.90;99.90
24338;DHT22;12457;50.832;4.346;2023-04-24T03:11:50;8.90;99.90
24338;DHT22;12457;50.832;4.346;2023-04-24T03:14:16;8.90;99.90
24338;DHT22;12457;50.832;4.346;2023-04-24T03:16:42;9.00;99.90
24338;DHT22;12457;50.832;4.346;2023-04-24T03:19:07;8.90;99.90
24338;DHT22;12457;50.832;4.346;2023-04-24T03:21:33;8.90;99.90
24338;DHT22;12457;50.832;4.346;2023-04-24T03:24:01;8.90;99.90
24338;DHT22;12457;50.832;4.346;2023-04-24T03:26:26;8.90;99.90
24338;DHT22;12457;50.832;4.346;2023-04-24T03:28:52;8.90;99.90
24338;DHT22;12457;50.832;4.346;2023-04-24T03:31:18;8.90;99.90
24338;DHT22;12457;50.832;4.346;2023-04-24T03:33:44;8.90;99.90
24338;DHT22;12457;50.832;4.346;2023-04-24T03:36:10;8.90;99.90
24338;DHT22;12457;50.832;4.346;2023-04-24T03:38:36;9.10;99.90
24338;DHT22;12457;50.832;4.346;2023-04-24T03:41:02;9.00;99.90
24338;DHT22;12457;50.832;4.346;2023-04-24T03:43:27;9.10;99.90
24338;DHT22;12457;50.832;4.346;2023-04-24T03:45:53;9.10;99.90
24338;DHT22;12457;50.832;4.346;2023-04-24T03:48:19;9.10;99.90
24338;DHT22;12457;50.832;4.346;2023-04-24T03:50:45;9.10;99.90
24338;DHT22;12457;50.832;4.346;2023-04-24T03:53:11;9.10;99.90
24338;DHT22;12457;50.832;4.346;2023-04-24T03:55:36;9.10;99.90
24338;DHT22;12457;50.832;4.346;2023-04-24T03:58:02;9.20;99.90
24338;DHT22;12457;50.832;4.346;2023-04-24T04:00:28;9.20;99.90
24338;DHT22;12457;50.832;4.346;2023-04-24T04:02:57;9.20;99.90
24338;DHT22;12457;50.832;4.346;2023-04-24T04:05:23;9.20;99.90
24338;DHT22;12457;50.832;4.346;2023-04-24T04:07:48;9.20;99.90
24338;DHT22;12457;50.832;4.346;2023-04-24T04:10:14;9.30;99.90
24338;DHT22;12457;50.832;4.346;2023-04-24T04:12:45;9.30;99.90
24338;DHT22;12457;50.832;4.346;2023-04-24T04:15:11;9.30;99.90
24338;DHT22;12457;50.832;4.346;2023-04-24T04:17:37;9.40;99.90
24338;DHT22;12457;50.832;4.346;2023-04-24T04:20:04;9.40;99.90
24338;DHT22;12457;50.832;4.346;2023-04-24T04:22:34;9.40;99.90
24338;DHT22;12457;50.832;4.346;2023-04-24T04:24:59;9.40;99.90
24338;DHT22;12457;50.832;4.346;2023-04-24T04:27:25;9.50;99.90
24338;DHT22;12457;50.832;4.346;2023-04-24T04:29:54;9.50;99.90
24338;DHT22;12457;50.832;4.346;2023-04-24T04:32:22;9.50;99.90
24338;DHT22;12457;50.832;4.346;2023-04-24T04:34:47;9.40;99.90
24338;DHT22;12457;50.832;4.346;2023-04-24T04:37:14;9.40;99.90
24338;DHT22;12457;50.832;4.346;2023-04-24T04:39:40;9.40;99.90
24338;DHT22;12457;50.832;4.346;2023-04-24T04:42:06;9.30;99.90
24338;DHT22;12457;50.832;4.346;2023-04-24T04:44:32;9.30;99.90
24338;DHT22;12457;50.832;4.346;2023-04-24T04:46:58;9.40;99.90
24338;DHT22;12457;50.832;4.346;2023-04-24T04:49:25;9.20;99.90
24338;DHT22;12457;50.832;4.346;2023-04-24T04:51:53;9.10;99.90
24338;DHT22;12457;50.832;4.346;2023-04-24T04:54:19;9.10;99.90
24338;DHT22;12457;50.832;4.346;2023-04-24T04:56:45;9.00;99.90
24338;DHT22;12457;50.832;4.346;2023-04-24T04:59:11;9.00;99.90
24338;DHT22;12457;50.832;4.346;2023-04-24T05:01:37;8.90;99.90
24338;DHT22;12457;50.832;4.346;2023-04-24T05:04:03;8.80;99.90
24338;DHT22;12457;50.832;4.346;2023-04-24T05:06:29;8.90;99.90
24338;DHT22;12457;50.832;4.346;2023-04-24T05:08:56;8.80;99.90
24338;DHT22;12457;50.832;4.346;2023-04-24T05:11:22;8.80;99.90
24338;DHT22;12457;50.832;4.346;2023-04-24T05:13:48;8.80;99.90
24338;DHT22;12457;50.832;4.346;2023-04-24T05:16:14;8.80;99.90
24338;DHT22;12457;50.832;4.346;2023-04-24T05:18:40;8.90;99.90
24338;DHT22;12457;50.832;4.346;2023-04-24T05:21:06;8.90;99.90
24338;DHT22;12457;50.832;4.346;2023-04-24T05:23:31;8.90;99.90
24338;DHT22;12457;50.832;4.346;2023-04-24T05:25:57;8.90;99.90
24338;DHT22;12457;50.832;4.346;2023-04-24T05:28:23;8.80;99.90
24338;DHT22;12457;50.832;4.346;2023-04-24T05:30:49;8.80;99.90
24338;DHT22;12457;50.832;4.346;2023-04-24T05:33:15;8.70;99.90
24338;DHT22;12457;50.832;4.346;2023-04-24T05:35:40;8.80;99.90
24338;DHT22;12457;50.832;4.346;2023-04-24T05:38:12;8.90;99.90
24338;DHT22;12457;50.832;4.346;2023-04-24T05:40:38;8.90;99.90
24338;DHT22;12457;50.832;4.346;2023-04-24T05:43:03;8.90;99.90
24338;DHT22;12457;50.832;4.346;2023-04-24T05:45:29;8.90;99.90
24338;DHT22;12457;50.832;4.346;2023-04-24T05:47:57;8.90;99.90
24338;DHT22;12457;50.832;4.346;2023-04-24T05:50:22;8.90;99.90
24338;DHT22;12457;50.832;4.346;2023-04-24T05:52:48;8.90;99.90
24338;DHT22;12457;50.832;4.346;2023-04-24T05:55:14;8.90;99.90
24338;DHT22;12457;50.832;4.346;2023-04-24T05:57:42;8.90;99.90
24338;DHT22;12457;50.832;4.346;2023-04-24T06:00:17;8.90;99.90
24338;DHT22;12457;50.832;4.346;2023-04-24T06:02:45;8.90;99.90
24338;DHT22;12457;50.832;4.346;2023-04-24T06:05:11;8.90;99.90
24338;DHT22;12457;50.832;4.346;2023-04-24T06:07:37;9.00;99.90
24338;DHT22;12457;50.832;4.346;2023-04-24T06:10:03;9.00;99.90
24338;DHT22;12457;50.832;4.346;2023-04-24T06:12:29;9.00;99.90
24338;DHT22;12457;50.832;4.346;2023-04-24T06:14:55;9.00;99.90
24338;DHT22;12457;50.832;4.346;2023-04-24T06:17:21;9.00;99.90
24338;DHT22;12457;50.832;4.346;2023-04-24T06:19:47;9.00;99.90
24338;DHT22;12457;50.832;4.346;2023-04-24T06:22:13;8.90;99.90
24338;DHT22;12457;50.832;4.346;2023-04-24T06:24:41;9.00;99.90
24338;DHT22;12457;50.832;4.346;2023-04-24T06:27:07;9.00;99.90
24338;DHT22;12457;50.832;4.346;2023-04-24T06:29:33;9.00;99.90
24338;DHT22;12457;50.832;4.346;2023-04-24T06:31:59;9.00;99.90
24338;DHT22;12457;50.832;4.346;2023-04-24T06:34:24;9.00;99.90
24338;DHT22;12457;50.832;4.346;2023-04-24T06:36:51;8.90;99.90
24338;DHT22;12457;50.832;4.346;2023-04-24T06:39:16;8.80;99.90
24338;DHT22;12457;50.832;4.346;2023-04-24T06:41:42;8.90;99.90
24338;DHT22;12457;50.832;4.346;2023-04-24T06:44:08;9.00;99.90
24338;DHT22;12457;50.832;4.346;2023-04-24T06:46:34;9.00;99.90
24338;DHT22;12457;50.832;4.346;2023-04-24T06:49:00;9.00;99.90
24338;DHT22;12457;50.832;4.346;2023-04-24T06:51:26;9.10;99.90
24338;DHT22;12457;50.832;4.346;2023-04-24T06:53:53;9.10;99.90
24338;DHT22;12457;50.832;4.346;2023-04-24T06:56:19;9.20;99.90
24338;DHT22;12457;50.832;4.346;2023-04-24T06:58:46;9.20;99.90
24338;DHT22;12457;50.832;4.346;2023-04-24T07:01:12;9.30;99.90
24338;DHT22;12457;50.832;4.346;2023-04-24T07:03:37;9.30;99.90
24338;DHT22;12457;50.832;4.346;2023-04-24T07:06:04;9.40;99.90
24338;DHT22;12457;50.832;4.346;2023-04-24T07:08:30;9.40;99.90
24338;DHT22;12457;50.832;4.346;2023-04-24T07:10:56;9.30;99.90
24338;DHT22;12457;50.832;4.346;2023-04-24T07:13:23;9.30;99.90
24338;DHT22;12457;50.832;4.346;2023-04-24T07:15:48;9.40;99.90
24338;DHT22;12457;50.832;4.346;2023-04-24T07:18:16;9.50;99.90
24338;DHT22;12457;50.832;4.346;2023-04-24T07:20:42;9.50;99.90
24338;DHT22;12457;50.832;4.346;2023-04-24T07:23:08;9.70;99.90
24338;DHT22;12457;50.832;4.346;2023-04-24T07:25:34;9.70;99.90
24338;DHT22;12457;50.832;4.346;2023-04-24T07:28:00;9.80;99.90
24338;DHT22;12457;50.832;4.346;2023-04-24T07:30:26;9.80;99.90
24338;DHT22;12457;50.832;4.346;2023-04-24T07:32:54;9.80;99.90
24338;DHT22;12457;50.832;4.346;2023-04-24T07:35:20;9.90;99.90
24338;DHT22;12457;50.832;4.346;2023-04-24T07:37:47;9.90;99.90
24338;DHT22;12457;50.832;4.346;2023-04-24T07:40:13;9.90;99.90
24338;DHT22;12457;50.832;4.346;2023-04-24T07:42:39;9.80;99.90
24338;DHT22;12457;50.832;4.346;2023-04-24T07:45:06;9.70;99.90
24338;DHT22;12457;50.832;4.346;2023-04-24T07:47:34;9.80;99.90
24338;DHT22;12457;50.832;4.346;2023-04-24T07:49:59;9.90;99.90
24338;DHT22;12457;50.832;4.346;2023-04-24T07:52:25;9.90;99.90
24338;DHT22;12457;50.832;4.346;2023-04-24T07:54:51;10.00;99.90
24338;DHT22;12457;50.832;4.346;2023-04-24T07:57:24;10.20;99.90
24338;DHT22;12457;50.832;4.346;2023-04-24T07:59:50;10.20;99.90
24338;DHT22;12457;50.832;4.346;2023-04-24T08:02:16;10.10;99.90
24338;DHT22;12457;50.832;4.346;2023-04-24T08:04:41;10.10;99.90
24338;DHT22;12457;50.832;4.346;2023-04-24T08:07:07;10.20;99.90
24338;DHT22;12457;50.832;4.346;2023-04-24T08:09:33;10.20;99.90
24338;DHT22;12457;50.832;4.346;2023-04-24T08:11:59;10.20;99.90
24338;DHT22;12457;50.832;4.346;2023-04-24T08:14:25;10.20;99.90
24338;DHT22;12457;50.832;4.346;2023-04-24T08:16:53;10.20;99.90
24338;DHT22;12457;50.832;4.346;2023-04-24T08:19:19;10.30;99.90
24338;DHT22;12457;50.832;4.346;2023-04-24T08:21:45;10.30;99.90
24338;DHT22;12457;50.832;4.346;2023-04-24T08:24:10;10.40;99.90
24338;DHT22;12457;50.832;4.346;2023-04-24T08:26:36;10.60;99.90
24338;DHT22;12457;50.832;4.346;2023-04-24T08:29:02;10.60;99.90
24338;DHT22;12457;50.832;4.346;2023-04-24T08:31:28;10.70;99.90
24338;DHT22;12457;50.832;4.346;2023-04-24T08:33:53;10.70;99.90
24338;DHT22;12457;50.832;4.346;2023-04-24T08:36:19;10.80;99.90
24338;DHT22;12457;50.832;4.346;2023-04-24T08:38:45;10.70;99.90
24338;DHT22;12457;50.832;4.346;2023-04-24T08:41:14;10.80;99.90
24338;DHT22;12457;50.832;4.346;2023-04-24T08:43:41;10.90;99.90
24338;DHT22;12457;50.832;4.346;2023-04-24T08:46:07;10.90;99.90
24338;DHT22;12457;50.832;4.346;2023-04-24T08:48:34;11.00;99.90
24338;DHT22;12457;50.832;4.346;2023-04-24T08:51:00;11.10;99.90
24338;DHT22;12457;50.832;4.346;2023-04-24T08:53:27;11.30;99.90
24338;DHT22;12457;50.832;4.346;2023-04-24T08:55:55;11.30;99.90
24338;DHT22;12457;50.832;4.346;2023-04-24T08:58:21;11.40;99.90
24338;DHT22;12457;50.832;4.346;2023-04-24T09:00:48;11.60;99.90
24338;DHT22;12457;50.832;4.346;2023-04-24T09:03:16;11.40;99.90
24338;DHT22;12457;50.832;4.346;2023-04-24T09:05:47;11.20;99.90
24338;DHT22;12457;50.832;4.346;2023-04-24T09:08:14;11.30;99.90
24338;DHT22;12457;50.832;4.346;2023-04-24T09:10:41;11.50;99.90
24338;DHT22;12457;50.832;4.346;2023-04-24T09:13:07;11.80;99.90
24338;DHT22;12457;50.832;4.346;2023-04-24T09:15:52;12.10;99.90
24338;DHT22;12457;50.832;4.346;2023-04-24T09:18:18;12.30;97.10
24338;DHT22;12457;50.832;4.346;2023-04-24T09:21:01;12.20;97.80
24338;DHT22;12457;50.832;4.346;2023-04-24T09:23:31;12.00;95.70
24338;DHT22;12457;50.832;4.346;2023-04-24T09:25:58;11.80;97.20
24338;DHT22;12457;50.832;4.346;2023-04-24T09:28:37;11.70;95.80
24338;DHT22;12457;50.832;4.346;2023-04-24T09:33:35;11.40;95.80
24338;DHT22;12457;50.832;4.346;2023-04-24T09:36:01;11.30;98.60
24338;DHT22;12457;50.832;4.346;2023-04-24T09:38:37;11.40;98.30
24338;DHT22;12457;50.832;4.346;2023-04-24T09:41:08;11.50;96.30
24338;DHT22;12457;50.832;4.346;2023-04-24T09:43:38;11.70;92.90
24338;DHT22;12457;50.832;4.346;2023-04-24T09:46:06;11.80;84.60
24338;DHT22;12457;50.832;4.346;2023-04-24T09:48:33;11.90;82.00
24338;DHT22;12457;50.832;4.346;2023-04-24T09:51:02;11.70;73.70
24338;DHT22;12457;50.832;4.346;2023-04-24T09:53:29;11.50;83.20
24338;DHT22;12457;50.832;4.346;2023-04-24T09:55:55;11.40;90.00
24338;DHT22;12457;50.832;4.346;2023-04-24T09:58:29;11.40;92.10
24338;DHT22;12457;50.832;4.346;2023-04-24T10:01:00;11.50;90.60
24338;DHT22;12457;50.832;4.346;2023-04-24T10:03:32;11.70;86.10
24338;DHT22;12457;50.832;4.346;2023-04-24T10:06:02;11.80;90.40
24338;DHT22;12457;50.832;4.346;2023-04-24T10:08:34;11.90;85.10
24338;DHT22;12457;50.832;4.346;2023-04-24T10:11:00;11.90;85.40
24338;DHT22;12457;50.832;4.346;2023-04-24T10:13:27;12.10;99.90
24338;DHT22;12457;50.832;4.346;2023-04-24T10:15:55;12.20;52.90
24338;DHT22;12457;50.832;4.346;2023-04-24T10:18:23;11.90;50.40
24338;DHT22;12457;50.832;4.346;2023-04-24T10:20:49;11.90;53.60
24338;DHT22;12457;50.832;4.346;2023-04-24T10:23:15;12.00;54.30
24338;DHT22;12457;50.832;4.346;2023-04-24T10:25:44;12.00;59.00
24338;DHT22;12457;50.832;4.346;2023-04-24T10:28:10;12.00;66.00
24338;DHT22;12457;50.832;4.346;2023-04-24T10:30:42;11.90;63.90
24338;DHT22;12457;50.832;4.346;2023-04-24T10:33:08;11.60;78.20
24338;DHT22;12457;50.832;4.346;2023-04-24T10:35:37;11.50;78.40
24338;DHT22;12457;50.832;4.346;2023-04-24T10:38:13;11.50;76.80
24338;DHT22;12457;50.832;4.346;2023-04-24T10:40:39;11.60;87.40
24338;DHT22;12457;50.832;4.346;2023-04-24T10:43:06;11.80;85.30
24338;DHT22;12457;50.832;4.346;2023-04-24T10:45:33;12.00;99.90
24338;DHT22;12457;50.832;4.346;2023-04-24T10:48:08;12.40;99.90
24338;DHT22;12457;50.832;4.346;2023-04-24T10:50:46;12.50;99.90
24338;DHT22;12457;50.832;4.346;2023-04-24T10:53:31;12.50;99.90
24338;DHT22;12457;50.832;4.346;2023-04-24T10:58:23;12.80;99.90
24338;DHT22;12457;50.832;4.346;2023-04-24T11:00:59;12.70;99.90
24338;DHT22;12457;50.832;4.346;2023-04-24T11:03:33;12.80;99.90
24338;DHT22;12457;50.832;4.346;2023-04-24T11:06:04;12.90;99.90
24338;DHT22;12457;50.832;4.346;2023-04-24T11:11:13;13.00;99.90
24338;DHT22;12457;50.832;4.346;2023-04-24T11:16:33;13.10;99.90
24338;DHT22;12457;50.832;4.346;2023-04-24T11:19:09;13.00;99.90
24338;DHT22;12457;50.832;4.346;2023-04-24T11:24:32;13.10;99.90
24338;DHT22;12457;50.832;4.346;2023-04-24T11:27:20;13.30;99.90
24338;DHT22;12457;50.832;4.346;2023-04-24T11:32:40;13.70;99.90
24338;DHT22;12457;50.832;4.346;2023-04-24T11:35:08;13.70;99.90
24338;DHT22;12457;50.832;4.346;2023-04-24T11:37:39;13.80;99.90
24338;DHT22;12457;50.832;4.346;2023-04-24T11:40:07;13.80;99.90
24338;DHT22;12457;50.832;4.346;2023-04-24T11:42:34;13.60;99.90
24338;DHT22;12457;50.832;4.346;2023-04-24T11:45:00;13.10;99.90
24338;DHT22;12457;50.832;4.346;2023-04-24T11:47:31;12.80;99.90
24338;DHT22;12457;50.832;4.346;2023-04-24T11:50:01;12.80;99.90
24338;DHT22;12457;50.832;4.346;2023-04-24T11:52:32;12.80;99.90
24338;DHT22;12457;50.832;4.346;2023-04-24T11:54:59;13.00;99.90
24338;DHT22;12457;50.832;4.346;2023-04-24T11:57:26;13.20;99.90
24338;DHT22;12457;50.832;4.346;2023-04-24T11:59:59;13.40;99.90
24338;DHT22;12457;50.832;4.346;2023-04-24T12:02:26;13.40;99.90
24338;DHT22;12457;50.832;4.346;2023-04-24T12:04:54;13.30;99.90
24338;DHT22;12457;50.832;4.346;2023-04-24T12:07:20;13.70;99.90
24338;DHT22;12457;50.832;4.346;2023-04-24T12:09:48;13.80;99.90
24338;DHT22;12457;50.832;4.346;2023-04-24T12:12:17;13.80;99.90
24338;DHT22;12457;50.832;4.346;2023-04-24T12:14:48;13.60;99.90
24338;DHT22;12457;50.832;4.346;2023-04-24T12:17:42;13.10;99.90
24338;DHT22;12457;50.832;4.346;2023-04-24T12:20:09;12.90;99.90
24338;DHT22;12457;50.832;4.346;2023-04-24T12:25:16;12.90;99.90
24338;DHT22;12457;50.832;4.346;2023-04-24T12:27:43;12.90;99.90
24338;DHT22;12457;50.832;4.346;2023-04-24T12:30:15;12.80;99.90
24338;DHT22;12457;50.832;4.346;2023-04-24T12:32:46;13.00;99.90
24338;DHT22;12457;50.832;4.346;2023-04-24T12:35:13;13.10;99.90
24338;DHT22;12457;50.832;4.346;2023-04-24T12:37:42;13.20;99.90
24338;DHT22;12457;50.832;4.346;2023-04-24T12:40:10;13.30;99.90
24338;DHT22;12457;50.832;4.346;2023-04-24T12:42:42;13.30;99.90
24338;DHT22;12457;50.832;4.346;2023-04-24T12:45:09;13.50;99.90
24338;DHT22;12457;50.832;4.346;2023-04-24T12:47:37;13.70;99.90
24338;DHT22;12457;50.832;4.346;2023-04-24T12:50:07;14.10;99.90
24338;DHT22;12457;50.832;4.346;2023-04-24T12:52:37;14.20;99.90
24338;DHT22;12457;50.832;4.346;2023-04-24T12:55:03;14.40;99.90
24338;DHT22;12457;50.832;4.346;2023-04-24T12:57:30;14.30;99.90
24338;DHT22;12457;50.832;4.346;2023-04-24T12:59:57;13.70;99.90
24338;DHT22;12457;50.832;4.346;2023-04-24T13:02:33;13.70;99.90
24338;DHT22;12457;50.832;4.346;2023-04-24T13:05:00;13.80;99.90
24338;DHT22;12457;50.832;4.346;2023-04-24T13:07:26;13.60;99.90
24338;DHT22;12457;50.832;4.346;2023-04-24T13:09:53;13.40;99.90
24338;DHT22;12457;50.832;4.346;2023-04-24T13:12:20;13.70;99.90
24338;DHT22;12457;50.832;4.346;2023-04-24T13:14:46;13.90;99.90
24338;DHT22;12457;50.832;4.346;2023-04-24T13:17:12;14.00;99.90
24338;DHT22;12457;50.832;4.346;2023-04-24T13:19:43;14.10;99.90
24338;DHT22;12457;50.832;4.346;2023-04-24T13:22:10;14.40;99.90
24338;DHT22;12457;50.832;4.346;2023-04-24T13:24:38;14.50;99.90
24338;DHT22;12457;50.832;4.346;2023-04-24T13:27:06;14.60;99.90
24338;DHT22;12457;50.832;4.346;2023-04-24T13:29:32;14.60;99.90
24338;DHT22;12457;50.832;4.346;2023-04-24T13:31:58;14.50;99.90
24338;DHT22;12457;50.832;4.346;2023-04-24T13:34:24;14.20;99.90
24338;DHT22;12457;50.832;4.346;2023-04-24T13:36:54;14.60;99.90
24338;DHT22;12457;50.832;4.346;2023-04-24T13:39:22;14.60;99.90
24338;DHT22;12457;50.832;4.346;2023-04-24T13:41:48;14.50;99.90
24338;DHT22;12457;50.832;4.346;2023-04-24T13:44:15;14.40;99.90
24338;DHT22;12457;50.832;4.346;2023-04-24T13:46:41;14.60;99.90
24338;DHT22;12457;50.832;4.346;2023-04-24T13:49:09;14.50;99.90
24338;DHT22;12457;50.832;4.346;2023-04-24T13:51:35;14.30;99.90
24338;DHT22;12457;50.832;4.346;2023-04-24T13:54:01;14.20;99.90
24338;DHT22;12457;50.832;4.346;2023-04-24T13:56:27;14.00;99.90
24338;DHT22;12457;50.832;4.346;2023-04-24T13:58:52;13.90;99.90
24338;DHT22;12457;50.832;4.346;2023-04-24T14:01:19;14.10;99.90
24338;DHT22;12457;50.832;4.346;2023-04-24T14:03:46;14.10;99.90
24338;DHT22;12457;50.832;4.346;2023-04-24T14:06:11;13.60;99.90
24338;DHT22;12457;50.832;4.346;2023-04-24T14:08:38;13.60;99.90
24338;DHT22;12457;50.832;4.346;2023-04-24T14:11:04;13.90;99.90
24338;DHT22;12457;50.832;4.346;2023-04-24T14:13:31;14.10;99.90
24338;DHT22;12457;50.832;4.346;2023-04-24T14:15:56;14.20;99.90
24338;DHT22;12457;50.832;4.346;2023-04-24T14:18:23;14.20;99.90
24338;DHT22;12457;50.832;4.346;2023-04-24T14:20:48;14.30;99.90
24338;DHT22;12457;50.832;4.346;2023-04-24T14:23:15;14.20;99.90
24338;DHT22;12457;50.832;4.346;2023-04-24T14:25:41;14.40;99.90
24338;DHT22;12457;50.832;4.346;2023-04-24T14:28:07;14.20;99.90
24338;DHT22;12457;50.832;4.346;2023-04-24T14:30:33;14.20;99.90
24338;DHT22;12457;50.832;4.346;2023-04-24T14:32:58;14.20;99.90
24338;DHT22;12457;50.832;4.346;2023-04-24T14:35:24;14.40;99.90
24338;DHT22;12457;50.832;4.346;2023-04-24T14:37:50;14.10;99.90
24338;DHT22;12457;50.832;4.346;2023-04-24T14:40:16;14.00;99.90
24338;DHT22;12457;50.832;4.346;2023-04-24T14:42:42;13.90;99.90
24338;DHT22;12457;50.832;4.346;2023-04-24T14:45:08;13.90;99.90
24338;DHT22;12457;50.832;4.346;2023-04-24T14:47:34;13.80;99.90
24338;DHT22;12457;50.832;4.346;2023-04-24T14:50:00;13.90;99.90
24338;DHT22;12457;50.832;4.346;2023-04-24T14:52:25;13.90;99.90
24338;DHT22;12457;50.832;4.346;2023-04-24T14:54:51;13.80;99.90
24338;DHT22;12457;50.832;4.346;2023-04-24T14:57:17;13.90;99.90
24338;DHT22;12457;50.832;4.346;2023-04-24T14:59:43;14.10;99.90
24338;DHT22;12457;50.832;4.346;2023-04-24T15:02:10;14.20;99.90
24338;DHT22;12457;50.832;4.346;2023-04-24T15:07:50;13.60;99.90
24338;DHT22;12457;50.832;4.346;2023-04-24T15:10:15;13.80;99.90
24338;DHT22;12457;50.832;4.346;2023-04-24T15:12:43;13.80;99.90
24338;DHT22;12457;50.832;4.346;2023-04-24T15:15:09;13.80;99.90
24338;DHT22;12457;50.832;4.346;2023-04-24T15:17:35;13.50;99.90
24338;DHT22;12457;50.832;4.346;2023-04-24T15:20:00;13.30;99.90
24338;DHT22;12457;50.832;4.346;2023-04-24T15:22:26;13.30;99.90
24338;DHT22;12457;50.832;4.346;2023-04-24T15:24:53;13.20;99.90
24338;DHT22;12457;50.832;4.346;2023-04-24T15:27:19;13.10;99.90
24338;DHT22;12457;50.832;4.346;2023-04-24T15:29:45;13.10;99.90
24338;DHT22;12457;50.832;4.346;2023-04-24T15:32:10;13.10;99.90
24338;DHT22;12457;50.832;4.346;2023-04-24T15:34:37;13.30;99.90
24338;DHT22;12457;50.832;4.346;2023-04-24T15:37:03;13.30;99.90
24338;DHT22;12457;50.832;4.346;2023-04-24T15:39:28;13.30;99.90
24338;DHT22;12457;50.832;4.346;2023-04-24T15:41:54;13.30;99.90
24338;DHT22;12457;50.832;4.346;2023-04-24T15:44:21;13.40;99.90
24338;DHT22;12457;50.832;4.346;2023-04-24T15:46:47;13.50;99.90
24338;DHT22;12457;50.832;4.346;2023-04-24T15:49:13;13.50;99.90
24338;DHT22;12457;50.832;4.346;2023-04-24T15:51:39;13.20;99.90
24338;DHT22;12457;50.832;4.346;2023-04-24T15:54:04;13.00;99.90
24338;DHT22;12457;50.832;4.346;2023-04-24T15:56:30;12.80;99.90
24338;DHT22;12457;50.832;4.346;2023-04-24T15:58:56;12.80;99.90